TimeEST,TemperatureF,Dew PointF,Humidity,Sea Level PressureIn,VisibilityMPH,Wind Direction,Wind SpeedMPH,Gust SpeedMPH,PrecipitationIn,Events,Conditions,WindDirDegrees,DateUTC
12:15 AM,39.2,26.6,61,30.00,10.0,SE,6.9,-,N/A,,Overcast,130,2013-03-05 05:15:00
12:35 AM,39.2,26.6,61,29.99,10.0,SE,6.9,-,N/A,,Overcast,130,2013-03-05 05:35:00
12:55 AM,39.2,26.6,61,29.98,10.0,SE,6.9,-,N/A,,Overcast,130,2013-03-05 05:55:00
1:15 AM,39.2,24.8,56,29.98,10.0,SE,6.9,-,N/A,,Overcast,130,2013-03-05 06:15:00
1:35 AM,39.2,24.8,56,29.98,10.0,ESE,6.9,-,N/A,,Overcast,120,2013-03-05 06:35:00
1:55 AM,39.2,24.8,56,29.97,10.0,ESE,5.8,-,N/A,,Overcast,120,2013-03-05 06:55:00
2:15 AM,39.2,24.8,56,29.97,10.0,ESE,5.8,-,N/A,,Overcast,110,2013-03-05 07:15:00
2:35 AM,39.2,24.8,56,29.96,10.0,ESE,6.9,-,N/A,,Overcast,110,2013-03-05 07:35:00
2:55 AM,39.2,24.8,56,29.95,10.0,ESE,6.9,-,N/A,,Overcast,110,2013-03-05 07:55:00
3:15 AM,39.2,24.8,56,29.95,10.0,ESE,9.2,-,N/A,,Overcast,120,2013-03-05 08:15:00
3:35 AM,39.2,24.8,56,29.93,10.0,ESE,9.2,-,N/A,,Overcast,120,2013-03-05 08:35:00
3:55 AM,37.4,24.8,60,29.92,10.0,ESE,10.4,-,N/A,,Overcast,110,2013-03-05 08:55:00
4:15 AM,37.4,24.8,60,29.92,10.0,ESE,10.4,-,N/A,,Overcast,120,2013-03-05 09:15:00
4:35 AM,37.4,24.8,60,29.91,10.0,ESE,8.1,-,N/A,,Overcast,120,2013-03-05 09:35:00
4:55 AM,37.4,26.6,65,29.91,10.0,ESE,9.2,-,N/A,,Light Drizzle,120,2013-03-05 09:55:00
5:15 AM,37.4,26.6,65,29.92,10.0,ESE,8.1,-,N/A,,Overcast,120,2013-03-05 10:15:00
5:35 AM,37.4,26.6,65,29.92,10.0,ESE,6.9,-,N/A,,Overcast,120,2013-03-05 10:35:00
5:55 AM,37.4,26.6,65,29.92,10.0,ESE,6.9,-,N/A,,Drizzle,120,2013-03-05 10:55:00
6:15 AM,37.4,28.4,70,29.93,10.0,ESE,5.8,-,N/A,,Drizzle,120,2013-03-05 11:15:00
6:35 AM,35.6,30.2,81,29.92,10.0,SE,6.9,-,N/A,Rain,Light Rain,130,2013-03-05 11:35:00
6:55 AM,35.6,32.0,87,29.92,7.0,SE,6.9,-,N/A,Rain,Light Rain,130,2013-03-05 11:55:00
7:15 AM,35.6,32.0,87,29.91,7.0,SE,8.1,-,N/A,,Drizzle,130,2013-03-05 12:15:00
7:35 AM,35.6,32.0,87,29.90,10.0,SE,8.1,-,N/A,,Drizzle,130,2013-03-05 12:35:00
8:35 AM,35.6,32.0,87,29.90,7.0,SE,6.9,-,N/A,Rain,Light Rain,130,2013-03-05 13:35:00
8:55 AM,35.6,33.8,93,29.88,10.0,SE,5.8,-,N/A,,Light Drizzle,130,2013-03-05 13:55:00
9:15 AM,37.4,33.8,87,29.87,10.0,SE,5.8,-,N/A,,Overcast,130,2013-03-05 14:15:00
9:35 AM,37.4,33.8,87,29.87,10.0,SE,6.9,-,N/A,,Overcast,130,2013-03-05 14:35:00
9:55 AM,37.4,33.8,87,29.86,10.0,SE,4.6,-,N/A,,Overcast,140,2013-03-05 14:55:00
10:15 AM,39.2,35.6,87,29.86,10.0,SSE,5.8,-,N/A,,Overcast,150,2013-03-05 15:15:00
10:35 AM,39.2,35.6,87,29.83,10.0,SE,8.1,-,N/A,,Light Drizzle,140,2013-03-05 15:35:00
10:55 AM,41.0,37.4,87,29.82,10.0,SSE,5.8,-,N/A,Rain,Light Rain,150,2013-03-05 15:55:00
11:15 AM,42.8,39.2,87,29.81,10.0,SSE,8.1,-,N/A,,Overcast,150,2013-03-05 16:15:00
11:35 AM,42.8,41.0,93,29.80,7.0,SSE,5.8,-,N/A,,Overcast,150,2013-03-05 16:35:00
11:55 AM,42.8,41.0,93,29.77,4.0,SE,6.9,-,N/A,,Drizzle,140,2013-03-05 16:55:00
12:15 PM,42.8,41.0,93,29.75,3.0,SE,9.2,-,N/A,,Drizzle,140,2013-03-05 17:15:00
12:35 PM,42.8,42.8,100,29.75,2.5,SSE,8.1,-,N/A,,Drizzle,150,2013-03-05 17:35:00
12:55 PM,42.8,42.8,100,29.73,2.0,SSE,9.2,-,N/A,,Drizzle,150,2013-03-05 17:55:00
1:15 PM,42.8,42.8,100,29.72,2.0,SSE,5.8,-,N/A,Rain,Rain,150,2013-03-05 18:15:00
1:35 PM,42.8,42.8,100,29.71,3.0,SSE,6.9,-,N/A,Rain,Rain,160,2013-03-05 18:35:00
1:55 PM,44.6,42.8,93,29.69,4.0,SSE,6.9,-,N/A,Rain,Rain,150,2013-03-05 18:55:00
2:15 PM,44.6,44.6,100,29.67,5.0,SE,8.1,-,N/A,Rain,Rain,140,2013-03-05 19:15:00
2:35 PM,44.6,44.6,100,29.65,5.0,SE,4.6,-,N/A,Rain,Rain,130,2013-03-05 19:35:00
2:55 PM,44.6,44.6,100,29.63,5.0,SE,8.1,-,N/A,Rain,Rain,130,2013-03-05 19:55:00
3:15 PM,44.6,44.6,100,29.62,5.0,SE,6.9,-,N/A,Rain,Rain,130,2013-03-05 20:15:00
3:35 PM,44.6,44.6,100,29.61,7.0,SE,6.9,-,N/A,Rain,Light Rain,130,2013-03-05 20:35:00
3:55 PM,44.6,44.6,100,29.59,4.0,SE,6.9,-,N/A,Rain,Rain,140,2013-03-05 20:55:00
4:15 PM,44.6,44.6,100,29.59,3.0,Calm,Calm,-,N/A,Rain,Rain,0,2013-03-05 21:15:00
4:35 PM,44.6,44.6,100,29.58,7.0,ESE,3.5,-,N/A,Rain,Rain,120,2013-03-05 21:35:00
4:55 PM,44.6,44.6,100,29.57,7.0,Calm,Calm,-,N/A,Rain,Light Rain,0,2013-03-05 21:55:00
5:15 PM,44.6,44.6,100,29.56,5.0,Calm,Calm,-,N/A,Rain,Light Rain,0,2013-03-05 22:15:00
5:35 PM,44.6,44.6,100,29.55,5.0,Calm,Calm,-,N/A,Rain,Light Rain,0,2013-03-05 22:35:00
5:55 PM,44.6,44.6,100,29.55,3.0,Calm,Calm,-,N/A,Rain,Rain,0,2013-03-05 22:55:00
6:15 PM,44.6,44.6,100,29.56,2.0,West,5.8,-,N/A,Rain,Rain,260,2013-03-05 23:15:00
6:35 PM,44.6,44.6,100,29.56,7.0,West,16.1,21.9,N/A,Rain,Light Rain,280,2013-03-05 23:35:00
6:55 PM,42.8,42.8,100,29.58,5.0,WNW,23.0,41.4,N/A,Rain,Rain,290,2013-03-05 23:55:00
7:15 PM,37.4,35.6,93,29.62,5.0,WNW,23.0,39.1,N/A,Rain,Rain,290,2013-03-06 00:15:00
7:35 PM,33.8,33.8,100,29.65,2.5,WNW,24.2,39.1,N/A,,Overcast,300,2013-03-06 00:35:00
7:55 PM,33.8,32.0,93,29.67,2.5,WNW,21.9,35.7,N/A,Snow,Light Snow,290,2013-03-06 00:55:00
8:15 PM,32.0,32.0,100,29.69,2.5,WNW,21.9,33.4,N/A,Snow,Light Snow,290,2013-03-06 01:15:00
8:35 PM,32.0,32.0,100,29.70,1.0,WNW,16.1,32.2,N/A,Snow,Snow,290,2013-03-06 01:35:00
8:55 PM,32.0,32.0,100,29.71,1.2,West,15.0,27.6,N/A,Snow,Light Snow,280,2013-03-06 01:55:00
9:15 PM,32.0,32.0,100,29.72,3.0,WNW,17.3,24.2,N/A,Snow,Light Snow,290,2013-03-06 02:15:00
9:35 PM,32.0,32.0,100,29.72,5.0,WNW,18.4,33.4,N/A,Snow,Light Snow,290,2013-03-06 02:35:00
9:55 PM,32.0,30.2,93,29.73,10.0,WNW,16.1,34.5,N/A,Snow,Light Snow,290,2013-03-06 02:55:00
10:15 PM,32.0,30.2,93,29.73,7.0,West,19.6,36.8,N/A,Snow,Light Snow,280,2013-03-06 03:15:00
10:35 PM,32.0,28.4,87,29.73,5.0,WNW,20.7,36.8,N/A,Snow,Light Snow,290,2013-03-06 03:35:00
10:55 PM,32.0,30.2,93,29.74,4.0,WNW,15.0,23.0,N/A,Snow,Light Snow,290,2013-03-06 03:55:00
11:15 PM,32.0,28.4,87,29.74,3.0,WNW,20.7,28.8,N/A,Snow,Light Snow,300,2013-03-06 04:15:00
11:35 PM,32.0,28.4,87,29.74,2.5,West,13.8,27.6,N/A,Snow,Light Snow,280,2013-03-06 04:35:00
11:55 PM,30.2,28.4,93,29.74,2.0,WNW,23.0,32.2,N/A,Snow,Light Snow,290,2013-03-06 04:55:00